Time;durP1;ratioP1;P1;durP2;ratioP2;P2;SDS_P1;SDS_P2;PMS_P1;PMS_P2;Temp;Humidity;BMP_temperature;BMP_pressure;BME280_temperature;BME280_humidity;BME280_pressure;Samples;Min_cycle;Max_cycle;Signal;HPM_P1;HPM_P2
2020/12/21 00:02:02;;;;;;;38.78;15.32;;;;;;;0.68;83.37;101243.33;1681747;84;21164;-57
2020/12/21 00:04:30;;;;;;;29.37;14.68;;;;;;;0.58;83.52;101242.68;1691669;84;21193;-58
2020/12/21 00:06:58;;;;;;;30.43;14.80;;;;;;;0.60;83.45;101239.34;1686159;84;21165;-57
2020/12/21 00:09:25;;;;;;;37.95;14.65;;;;;;;0.68;83.03;101243.33;1694760;84;21161;-58
2020/12/21 00:11:53;;;;;;;34.25;14.25;;;;;;;0.63;83.42;101233.64;1698956;84;21184;-58
2020/12/21 00:14:20;;;;;;;30.23;13.88;;;;;;;0.61;83.71;101243.17;1699077;84;21157;-58
2020/12/21 00:16:50;;;;;;;21.48;11.28;;;;;;;0.62;83.81;101243.52;1685136;84;21206;-58
2020/12/21 00:19:19;;;;;;;21.52;12.75;;;;;;;0.73;83.50;101242.32;1685701;84;21727;-59
2020/12/21 00:21:52;;;;;;;22.40;11.00;;;;;;;0.77;83.10;101243.16;1685639;84;21298;-58
2020/12/21 00:24:20;;;;;;;28.00;12.88;;;;;;;0.69;83.25;101227.59;1677602;84;21581;-58
2020/12/21 00:26:48;;;;;;;21.57;9.98;;;;;;;0.59;83.46;101226.45;1655247;86;21178;-58
2020/12/21 00:29:16;;;;;;;17.67;9.75;;;;;;;0.52;83.58;101225.95;1696902;84;21160;-58
2020/12/21 00:31:44;;;;;;;21.20;11.20;;;;;;;0.47;83.50;101223.28;1670311;84;21313;-58
2020/12/21 00:34:12;;;;;;;27.50;13.60;;;;;;;0.46;83.33;101227.48;1685937;84;21696;-58
2020/12/21 00:36:41;;;;;;;23.95;11.78;;;;;;;0.39;83.53;101228.64;1658645;85;21225;-58
2020/12/21 00:39:09;;;;;;;24.87;13.05;;;;;;;0.34;83.94;101231.51;1705010;83;21614;-59
2020/12/21 00:41:36;;;;;;;27.67;12.37;;;;;;;0.31;84.15;101219.80;1688828;83;21345;-59
2020/12/21 00:44:05;;;;;;;24.52;13.03;;;;;;;0.43;84.01;101220.60;1691028;83;21645;-59
2020/12/21 00:46:32;;;;;;;20.55;11.00;;;;;;;0.58;83.64;101222.58;1692826;82;21165;-59
2020/12/21 00:49:00;;;;;;;18.60;9.50;;;;;;;0.60;83.74;101224.61;1678253;83;21226;-58
2020/12/21 00:51:29;;;;;;;24.25;11.55;;;;;;;0.53;83.78;101227.14;1712138;83;21324;-58
2020/12/21 00:53:57;;;;;;;24.57;13.15;;;;;;;0.43;83.89;101217.92;1709397;83;21275;-58
2020/12/21 00:56:24;;;;;;;29.65;11.78;;;;;;;0.50;83.79;101222.94;1712338;83;21190;-58
2020/12/21 00:58:52;;;;;;;26.02;11.63;;;;;;;0.60;83.42;101219.25;1709361;83;21517;-59
2020/12/21 01:01:26;;;;;;;37.73;11.73;;;;;;;0.61;83.64;101227.09;1690213;83;21691;-58
2020/12/21 01:03:56;;;;;;;33.35;10.95;;;;;;;0.61;83.93;101221.73;1694357;83;21616;-59
2020/12/21 01:06:23;;;;;;;31.33;12.18;;;;;;;0.63;84.09;101225.10;1704630;83;21191;-59
2020/12/21 01:08:53;;;;;;;31.52;12.98;;;;;;;0.72;83.73;101216.02;1708561;83;21620;-58
2020/12/21 01:11:20;;;;;;;28.98;11.85;;;;;;;0.84;83.27;101227.22;1696303;83;21169;-58
2020/12/21 01:13:48;;;;;;;39.48;11.63;;;;;;;0.78;83.37;101216.66;1712114;83;21691;-58
2020/12/21 01:16:17;;;;;;;41.53;12.60;;;;;;;0.74;83.55;101227.92;1682327;83;21634;-58
2020/12/21 01:18:45;;;;;;;28.35;12.40;;;;;;;0.70;83.48;101226.59;1707539;83;21680;-58
2020/12/21 01:21:12;;;;;;;27.82;13.18;;;;;;;0.71;83.22;101222.38;1713945;83;21194;-58
2020/12/21 01:23:39;;;;;;;28.25;12.25;;;;;;;0.79;82.88;101224.20;1649309;86;21210;-59
2020/12/21 01:26:06;;;;;;;35.45;11.73;;;;;;;0.71;82.97;101217.02;1690149;83;21146;-58
2020/12/21 01:28:33;;;;;;;26.55;12.13;;;;;;;0.62;83.25;101219.90;1642839;85;21157;-58
2020/12/21 01:31:01;;;;;;;25.88;11.73;;;;;;;0.53;83.52;101220.94;1687917;83;21207;-58
2020/12/21 01:33:29;;;;;;;33.13;12.28;;;;;;;0.57;83.36;101218.25;1692211;83;21169;-59
2020/12/21 01:35:58;;;;;;;27.60;11.60;;;;;;;0.60;83.22;101216.56;1701111;83;21173;-59
2020/12/21 01:38:25;;;;;;;26.95;11.50;;;;;;;0.56;83.49;101213.89;1720174;83;21247;-58
2020/12/21 01:40:52;;;;;;;29.45;12.28;;;;;;;0.55;83.73;101214.89;1734681;82;21126;-59
2020/12/21 01:43:19;;;;;;;29.42;13.98;;;;;;;0.55;83.76;101211.71;1724146;82;21169;-59
2020/12/21 01:45:47;;;;;;;30.50;13.48;;;;;;;0.70;83.36;101209.16;1739640;82;21185;-58
2020/12/21 01:48:14;;;;;;;30.20;12.63;;;;;;;0.73;83.10;101206.13;1725956;82;21578;-58
2020/12/21 01:50:42;;;;;;;32.95;12.47;;;;;;;0.68;83.18;101209.82;1723845;82;21177;-58
2020/12/21 01:53:10;;;;;;;26.00;12.53;;;;;;;0.55;83.30;101213.55;1700681;82;21195;-58
2020/12/21 01:55:39;;;;;;;26.90;13.35;;;;;;;0.58;83.33;101211.86;1723381;82;21193;-58
2020/12/21 01:58:07;;;;;;;40.88;13.58;;;;;;;0.69;82.96;101210.16;1746032;82;21173;-58
2020/12/21 02:00:34;;;;;;;37.60;13.13;;;;;;;0.59;82.98;101211.70;1739215;82;21612;-58
2020/12/21 02:03:01;;;;;;;45.65;12.75;;;;;;;0.48;83.24;101208.05;1716119;82;21597;-58
2020/12/21 02:05:29;;;;;;;31.75;14.00;;;;;;;0.41;83.54;101211.91;1728589;82;21666;-57
2020/12/21 02:07:56;;;;;;;24.82;12.65;;;;;;;0.50;83.35;101211.38;1705730;82;21125;-58
2020/12/21 02:10:23;;;;;;;23.60;11.35;;;;;;;0.59;82.94;101209.52;1715471;82;21327;-58
2020/12/21 02:12:51;;;;;;;46.37;13.28;;;;;;;0.49;83.07;101206.55;1714917;82;21169;-58
2020/12/21 02:15:18;;;;;;;30.40;11.12;;;;;;;0.39;83.43;101202.38;1691307;82;21613;-58
2020/12/21 02:17:45;;;;;;;23.25;11.80;;;;;;;0.37;83.76;101196.34;1721174;82;21137;-58
2020/12/21 02:20:12;;;;;;;28.12;13.18;;;;;;;0.45;83.42;101202.53;1711000;82;21223;-58
2020/12/21 02:22:40;;;;;;;18.45;10.55;;;;;;;0.54;83.12;101207.85;1716756;82;21625;-58
2020/12/21 02:25:07;;;;;;;20.68;10.60;;;;;;;0.52;83.42;101208.53;1689603;82;21292;-58
2020/12/21 02:27:34;;;;;;;24.98;11.55;;;;;;;0.44;83.42;101205.37;1748163;82;21348;-58
2020/12/21 02:30:01;;;;;;;26.45;13.98;;;;;;;0.35;83.46;101205.06;1712949;82;21306;-58
2020/12/21 02:32:29;;;;;;;45.35;12.73;;;;;;;0.46;83.32;101211.41;1684775;83;21185;-58
2020/12/21 02:34:57;;;;;;;17.82;9.43;;;;;;;0.53;83.12;101215.58;1694064;83;21197;-58
2020/12/21 02:37:24;;;;;;;25.45;11.68;;;;;;;0.49;83.36;101203.87;1717278;83;21312;-57
2020/12/21 02:39:51;;;;;;;33.08;12.33;;;;;;;0.42;83.37;101204.22;1714098;82;21165;-58
2020/12/21 02:42:18;;;;;;;20.45;11.25;;;;;;;0.39;83.45;101204.53;1702309;82;21175;-58
2020/12/21 02:44:46;;;;;;;18.92;10.85;;;;;;;0.55;83.07;101206.85;1721993;82;21192;-58
2020/12/21 02:47:13;;;;;;;17.82;10.43;;;;;;;0.62;82.76;101206.00;1674824;84;21133;-58
2020/12/21 02:49:40;;;;;;;22.75;12.33;;;;;;;0.55;82.86;101202.83;1687458;83;21117;-58
2020/12/21 02:52:08;;;;;;;22.82;11.85;;;;;;;0.50;83.05;101202.84;1727725;82;21140;-57
2020/12/21 02:54:35;;;;;;;19.52;11.30;;;;;;;0.44;83.01;101204.87;1681793;83;21182;-58
2020/12/21 02:57:02;;;;;;;18.75;10.13;;;;;;;0.56;82.66;101206.70;1697699;82;21145;-58
2020/12/21 02:59:30;;;;;;;16.97;10.50;;;;;;;0.56;82.44;101211.22;1750576;82;21185;-58
2020/12/21 03:01:57;;;;;;;27.95;11.90;;;;;;;0.43;82.64;101207.70;1746281;82;21179;-57
2020/12/21 03:04:25;;;;;;;18.17;11.12;;;;;;;0.36;82.99;101212.91;1739189;82;21728;-58
2020/12/21 03:06:52;;;;;;;21.27;12.13;;;;;;;0.38;83.27;101214.94;1684457;82;21298;-57
2020/12/21 03:09:19;;;;;;;18.73;11.33;;;;;;;0.58;82.89;101225.27;1664028;83;21174;-58
2020/12/21 03:11:48;;;;;;;21.02;11.33;;;;;;;0.61;82.72;101224.92;1727392;82;21130;-58
2020/12/21 03:14:17;;;;;;;21.48;11.20;;;;;;;0.58;82.95;101227.45;1743169;82;21118;-58
2020/12/21 03:16:45;;;;;;;25.77;13.30;;;;;;;0.55;83.02;101230.47;1729367;82;21203;-58
2020/12/21 03:19:12;;;;;;;25.37;12.73;;;;;;;0.64;82.80;101227.28;1684100;83;21272;-58
2020/12/21 03:21:39;;;;;;;23.20;11.97;;;;;;;0.73;82.27;101228.92;1727556;82;21205;-60
2020/12/21 03:24:06;;;;;;;23.20;11.83;;;;;;;0.69;82.33;101224.41;1697735;82;21151;-58
2020/12/21 03:26:34;;;;;;;25.62;12.50;;;;;;;0.61;82.42;101220.40;1712222;83;21295;-58
2020/12/21 03:29:02;;;;;;;26.90;12.90;;;;;;;0.55;82.70;101211.71;1717155;83;21335;-58
2020/12/21 03:31:29;;;;;;;28.65;12.78;;;;;;;0.67;82.69;101221.08;1735751;82;21300;-58
2020/12/21 03:33:56;;;;;;;35.85;12.85;;;;;;;0.79;82.37;101210.80;1705171;83;21130;-58
2020/12/21 03:36:24;;;;;;;24.77;12.63;;;;;;;0.79;82.46;101217.00;1700381;82;21199;-58
2020/12/21 03:38:51;;;;;;;27.75;13.28;;;;;;;0.79;82.57;101220.18;1735734;82;21118;-58
2020/12/21 03:41:18;;;;;;;30.00;13.03;;;;;;;0.76;82.64;101217.84;1688993;84;21327;-58
2020/12/21 03:43:45;;;;;;;27.00;13.13;;;;;;;0.84;82.41;101222.69;1695349;82;21173;-58
2020/12/21 03:46:12;;;;;;;22.87;12.78;;;;;;;0.97;82.07;101216.77;1733428;82;21186;-58
2020/12/21 03:48:40;;;;;;;29.82;13.05;;;;;;;0.96;82.07;101219.95;1734728;82;21209;-58
2020/12/21 03:51:08;;;;;;;33.58;13.38;;;;;;;0.91;82.15;101219.66;1713165;82;21405;-58
2020/12/21 03:53:35;;;;;;;29.77;13.88;;;;;;;0.84;82.17;101211.12;1730534;82;21299;-58
2020/12/21 03:56:02;;;;;;;35.33;17.15;;;;;;;0.93;81.90;101217.62;1721523;82;21206;-58
2020/12/21 03:58:29;;;;;;;30.57;15.85;;;;;;;;;;1709588;83;21158;-58
2020/12/21 04:00:56;;;;;;;32.38;14.75;;;;;;;0.90;81.62;101209.92;1664028;82;21283;-58
2020/12/21 04:03:24;;;;;;;26.33;12.85;;;;;;;0.83;81.93;101216.98;1725477;82;21594;-58
2020/12/21 04:05:51;;;;;;;24.52;13.88;;;;;;;0.79;82.01;101217.50;1716504;82;21295;-58
2020/12/21 04:08:18;;;;;;;29.98;15.43;;;;;;;0.86;81.89;101219.82;1702111;82;21296;-59
2020/12/21 04:10:46;;;;;;;24.95;12.07;;;;;;;0.97;81.65;101219.45;1678504;82;21157;-58
2020/12/21 04:13:14;;;;;;;31.65;14.07;;;;;;;0.90;81.66;101216.63;1736976;82;21613;-58
2020/12/21 04:15:43;;;;;;;31.97;13.90;;;;;;;0.76;81.72;101219.19;1711668;82;21170;-57
2020/12/21 04:18:11;;;;;;;28.50;15.38;;;;;;;0.67;82.03;101215.71;1715700;82;21158;-57
2020/12/21 04:20:38;;;;;;;30.70;13.60;;;;;;;0.70;81.94;101214.02;1730233;82;21149;-57
2020/12/21 04:23:05;;;;;;;33.15;13.72;;;;;;;0.77;81.69;101213.67;1687686;82;21194;-57
2020/12/21 04:25:33;;;;;;;28.95;12.65;;;;;;;0.69;81.88;101218.20;1701094;82;21303;-57
2020/12/21 04:28:00;;;;;;;24.60;11.93;;;;;;;0.61;82.18;101215.03;1712860;82;21142;-57
2020/12/21 04:30:27;;;;;;;28.85;14.33;;;;;;;0.56;82.35;101210.72;1661559;84;21177;-58
2020/12/21 04:32:55;;;;;;;21.20;12.43;;;;;;;0.57;82.32;101205.66;1686156;83;21206;-57
2020/12/21 04:35:22;;;;;;;27.07;14.30;;;;;;;0.64;82.16;101205.31;1708310;82;21165;-57
2020/12/21 04:37:50;;;;;;;23.92;12.85;;;;;;;0.59;82.38;101202.33;1694430;82;21158;-58
2020/12/21 04:40:18;;;;;;;25.70;14.05;;;;;;;0.55;82.60;101206.85;1698007;82;21170;-58
2020/12/21 04:42:53;;;;;;;32.42;14.53;;;;;;;0.48;82.87;101202.69;1714461;82;21189;-58
2020/12/21 04:45:20;;;;;;;32.10;14.40;;;;;;;0.58;82.80;101201.98;1692796;84;21180;-58
2020/12/21 04:47:47;;;;;;;39.40;14.53;;;;;;;0.73;82.42;101209.66;1709191;82;21142;-58
2020/12/21 04:50:17;;;;;;;28.35;14.23;;;;;;;0.59;82.53;101192.95;1720310;82;21228;-59
2020/12/21 04:52:50;;;;;;;27.15;12.93;;;;;;;0.70;82.96;101210.50;1709518;82;21145;-58
2020/12/21 04:55:22;;;;;;;24.80;13.38;;;;;;;0.71;83.02;101211.66;1732984;82;21625;-58
2020/12/21 04:57:59;;;;;;;30.72;15.03;;;;;;;0.83;82.68;101210.28;1740505;82;21148;-58
2020/12/21 05:00:28;;;;;;;;;;;;;;;0.93;82.28;101208.23;1703600;82;21201;-57
2020/12/21 05:02:55;;;;;;;22.07;10.80;;;;;;;0.85;82.35;101208.25;1706583;82;20177;-58
2020/12/21 05:05:35;;;;;;;29.72;13.13;;;;;;;0.70;82.78;101211.84;1707357;84;21747;-58
2020/12/21 05:08:18;;;;;;;33.30;15.00;;;;;;;0.61;82.99;101212.36;1728439;82;21184;-57
2020/12/21 05:11:04;;;;;;;40.25;14.93;;;;;;;0.69;82.82;101211.00;1718491;82;21181;-58
2020/12/21 05:13:34;;;;;;;34.38;14.98;;;;;;;0.80;82.60;101213.31;1720157;82;21592;-58
2020/12/21 05:16:02;;;;;;;36.70;14.28;;;;;;;0.78;82.80;101211.83;1704586;82;21615;-58
2020/12/21 05:18:37;;;;;;;40.33;14.60;;;;;;;0.76;83.02;101210.64;1699816;82;21185;-58
2020/12/21 05:21:57;;;;;;;42.43;16.10;;;;;;;0.79;83.04;101210.80;1726874;79;23014;-59
2020/12/21 05:24:25;;;;;;;36.73;16.67;;;;;;;0.84;82.70;101207.95;1702667;83;21203;-58
2020/12/21 05:26:52;;;;;;;61.20;15.68;;;;;;;0.92;82.47;101209.23;1707453;83;21195;-59
2020/12/21 05:29:28;;;;;;;49.08;15.00;;;;;;;0.89;82.68;101204.72;1699860;83;21207;-59
2020/12/21 05:31:55;;;;;;;40.80;14.78;;;;;;;0.85;82.85;101212.81;1711401;83;21161;-61
2020/12/21 05:34:27;;;;;;;48.33;15.93;;;;;;;0.79;82.97;101213.48;1697889;83;21176;-59
2020/12/21 05:36:55;;;;;;;42.93;15.53;;;;;;;0.89;82.65;101208.25;1716282;83;22039;-59
2020/12/21 05:39:22;;;;;;;46.33;14.55;;;;;;;0.97;82.56;101210.91;1705792;83;21156;-59
2020/12/21 05:41:49;;;;;;;48.30;14.95;;;;;;;0.94;82.64;101215.78;1698072;83;21706;-59
2020/12/21 05:44:16;;;;;;;26.30;12.28;;;;;;;0.91;83.00;101214.79;1698487;83;21332;-59
2020/12/21 05:46:44;;;;;;;33.40;14.38;;;;;;;0.89;83.13;101214.95;1688647;85;21317;-58
2020/12/21 05:49:12;;;;;;;31.12;14.90;;;;;;;0.97;82.70;101218.11;1708706;83;21628;-59
2020/12/21 05:51:40;;;;;;;34.43;13.70;;;;;;;1.07;82.34;101215.20;1707371;83;21302;-58
2020/12/21 05:54:07;;;;;;;48.80;15.70;;;;;;;1.02;82.37;101224.30;1697667;83;21185;-59
2020/12/21 05:56:35;;;;;;;52.50;14.87;;;;;;;0.94;82.59;101222.48;1701074;83;21165;-58
2020/12/21 05:59:03;;;;;;;29.45;14.75;;;;;;;0.94;82.97;101235.39;1677811;83;21220;-58
2020/12/21 06:01:30;;;;;;;36.20;15.55;;;;;;;1.07;82.72;101226.78;1700180;83;21156;-58
2020/12/21 06:04:02;;;;;;;48.60;15.63;;;;;;;1.20;82.30;101227.08;1698070;83;21121;-59
2020/12/21 06:06:33;;;;;;;44.63;14.83;;;;;;;1.17;82.40;101226.59;1699659;83;21155;-59
2020/12/21 06:09:04;;;;;;;33.45;15.00;;;;;;;1.16;82.56;101231.61;1694463;83;21273;-59
2020/12/21 06:11:39;;;;;;;43.65;15.55;;;;;;;1.11;82.57;101226.77;1698093;83;21537;-58
2020/12/21 06:14:11;;;;;;;56.53;16.00;;;;;;;1.18;82.39;101222.38;1705428;83;21157;-59
2020/12/21 06:16:39;;;;;;;33.25;13.88;;;;;;;1.27;81.96;101224.52;1694017;82;21580;-59
2020/12/21 06:19:13;;;;;;;50.48;15.15;;;;;;;1.21;82.13;101219.84;1693735;85;21192;-58
2020/12/21 06:21:53;;;;;;;47.93;14.13;;;;;;;1.14;82.25;101227.75;1684274;83;21914;-59
2020/12/21 06:24:24;;;;;;;34.90;15.05;;;;;;;1.04;82.27;101226.28;1681381;85;21304;-59
2020/12/21 06:26:53;;;;;;;45.40;15.88;;;;;;;1.08;82.17;101227.12;1683182;84;21299;-59
2020/12/21 06:29:22;;;;;;;58.70;14.63;;;;;;;1.12;81.92;101227.11;1682645;84;21875;-59
2020/12/21 06:31:52;;;;;;;46.00;15.53;;;;;;;1.04;82.24;101227.13;1680016;84;21207;-59
2020/12/21 06:34:33;;;;;;;52.08;15.05;;;;;;;0.99;82.55;101225.49;1679539;85;21645;-59
2020/12/21 06:37:12;;;;;;;46.40;15.20;;;;;;;0.92;82.75;101231.22;1676221;84;21212;-58
2020/12/21 06:39:39;;;;;;;51.65;16.75;;;;;;;0.99;82.57;101224.96;1701547;84;21126;-59
2020/12/21 06:42:18;;;;;;;36.13;14.87;;;;;;;1.04;82.30;101231.16;1710670;83;21200;-59
2020/12/21 06:44:46;;;;;;;68.75;15.88;;;;;;;0.96;82.52;101230.67;1708883;83;21133;-59
2020/12/21 06:47:13;;;;;;;44.73;17.87;;;;;;;0.90;82.78;101238.58;1692291;84;21577;-58
2020/12/21 06:49:42;;;;;;;41.35;17.23;;;;;;;0.89;82.93;101240.42;1687808;84;21158;-59
2020/12/21 06:52:13;;;;;;;62.13;17.75;;;;;;;1.06;82.63;101246.58;1664307;85;21168;-59
2020/12/21 06:54:40;;;;;;;57.65;16.25;;;;;;;1.09;82.58;101251.59;1656580;86;21205;-59
2020/12/21 06:57:08;;;;;;;68.75;17.60;;;;;;;1.05;82.84;101248.92;1648628;86;21181;-58
2020/12/21 06:59:35;;;;;;;61.88;19.92;;;;;;;1.02;83.04;101243.07;1682519;84;21118;-59
2020/12/21 07:02:02;;;;;;;52.30;20.25;;;;;;;1.11;82.82;101251.41;1704868;84;21291;-58
2020/12/21 07:04:32;;;;;;;51.90;19.40;;;;;;;1.16;82.49;101250.39;1689115;84;21180;-59
2020/12/21 07:07:01;;;;;;;59.73;18.95;;;;;;;1.10;82.76;101258.61;1709219;84;21180;-59
2020/12/21 07:09:34;;;;;;;45.92;17.87;;;;;;;1.06;83.20;101254.63;1705354;84;21562;-59
2020/12/21 07:12:05;;;;;;;58.35;19.20;;;;;;;1.16;83.10;101249.89;1683184;84;21153;-58
2020/12/21 07:14:38;;;;;;;51.45;19.32;;;;;;;1.28;82.70;101253.84;1699490;84;21292;-58
2020/12/21 07:17:12;;;;;;;59.38;17.70;;;;;;;1.26;82.82;101251.02;1702184;84;21207;-57
2020/12/21 07:19:44;;;;;;;50.28;18.80;;;;;;;1.22;83.05;101256.39;1698750;82;21466;-58
2020/12/21 07:22:12;;;;;;;56.05;18.75;;;;;;;1.19;83.08;101254.91;1705276;82;21169;-58
2020/12/21 07:24:41;;;;;;;53.23;20.00;;;;;;;1.33;82.74;101254.67;1662279;85;21175;-57
2020/12/21 07:27:09;;;;;;;45.33;19.05;;;;;;;1.38;82.54;101250.43;1699468;82;21149;-56
2020/12/21 07:29:38;;;;;;;49.55;18.50;;;;;;;1.32;82.62;101252.48;1698960;83;21133;-58
2020/12/21 07:32:06;;;;;;;59.85;20.48;;;;;;;1.23;82.85;101251.37;1716031;83;21194;-57
2020/12/21 07:34:33;;;;;;;64.58;20.37;;;;;;;1.28;82.74;101253.00;1717212;83;21153;-57
2020/12/21 07:37:10;;;;;;;51.70;20.32;;;;;;;1.37;82.43;101250.63;1717297;82;21165;-57
2020/12/21 07:39:38;;;;;;;45.08;18.95;;;;;;;1.35;82.67;101253.47;1676231;85;21124;-58
2020/12/21 07:42:08;;;;;;;55.70;20.55;;;;;;;1.30;82.91;101254.52;1709488;83;21186;-58
2020/12/21 07:44:37;;;;;;;62.10;23.00;;;;;;;1.27;83.01;101246.83;1719053;83;21621;-58
2020/12/21 07:47:13;;;;;;;59.45;24.15;;;;;;;1.36;82.78;101236.87;1709133;82;21184;-57
2020/12/21 07:49:42;;;;;;;61.85;23.20;;;;;;;1.48;82.53;101250.23;1706515;83;21302;-57
2020/12/21 07:52:10;;;;;;;61.85;22.30;;;;;;;1.48;82.84;101253.77;1720492;83;21121;-58
2020/12/21 07:54:42;;;;;;;52.60;21.20;;;;;;;1.47;83.03;101252.08;1695882;83;21465;-57
2020/12/21 07:57:13;;;;;;;56.02;21.80;;;;;;;1.50;83.12;101251.72;1709851;83;21549;-57
2020/12/21 07:59:40;;;;;;;49.35;22.42;;;;;;;1.64;82.79;101250.63;1709260;83;21724;-58
2020/12/21 08:02:08;;;;;;;56.73;21.85;;;;;;;1.77;82.53;101248.22;1714173;83;21714;-57
2020/12/21 08:04:35;;;;;;;60.90;22.98;;;;;;;1.79;82.63;101244.84;1709700;83;21561;-57
2020/12/21 08:07:10;;;;;;;49.75;19.95;;;;;;;1.80;82.74;101250.55;1670769;84;21302;-57
2020/12/21 08:09:39;;;;;;;48.85;21.97;;;;;;;1.79;82.69;101245.68;1698066;83;21172;-58
2020/12/21 08:12:16;;;;;;;44.83;21.87;;;;;;;1.86;82.28;101240.42;1660968;83;21164;-58
2020/12/21 08:14:45;;;;;;;51.48;20.80;;;;;;;1.89;81.86;101252.14;1702985;83;21121;-57
2020/12/21 08:17:16;;;;;;;47.65;18.67;;;;;;;1.82;82.23;101246.66;1713004;83;21557;-57
2020/12/21 08:19:55;;;;;;;54.77;19.02;;;;;;;1.77;82.46;101242.31;1699961;83;21569;-58
2020/12/21 08:22:23;;;;;;;86.30;31.77;;;;;;;1.74;82.51;101246.70;1692658;83;21294;-58
2020/12/21 08:25:06;;;;;;;83.82;30.30;;;;;;;1.83;82.36;101244.81;1702698;83;21683;-58
2020/12/21 08:27:34;;;;;;;99.37;30.72;;;;;;;1.98;82.06;101244.38;1705410;83;21331;-58
2020/12/21 08:30:11;;;;;;;76.47;31.85;;;;;;;1.99;82.26;101238.80;1723035;83;21723;-57
2020/12/21 08:32:39;;;;;;;62.17;24.92;;;;;;;1.99;82.28;101236.13;1714727;82;21291;-59
2020/12/21 08:35:06;;;;;;;53.17;23.00;;;;;;;1.94;82.28;101238.53;1720754;81;21291;-58
2020/12/21 08:37:36;;;;;;;31.50;15.70;;;;;;;2.02;81.99;101242.97;1714516;83;21176;-59
2020/12/21 08:40:14;;;;;;;32.58;15.13;;;;;;;2.08;81.49;101232.88;1715683;83;21148;-59
2020/12/21 08:42:42;;;;;;;34.38;15.60;;;;;;;1.95;81.78;101233.46;1720375;81;21571;-58
2020/12/21 08:45:10;;;;;;;36.50;15.93;;;;;;;1.88;82.08;101243.75;1723544;81;21183;-58
2020/12/21 08:47:38;;;;;;;37.58;18.20;;;;;;;1.85;82.26;101238.74;1704635;83;21179;-57
2020/12/21 08:50:06;;;;;;;41.15;17.82;;;;;;;1.94;81.94;101230.97;1717139;82;21133;-59
2020/12/21 08:52:33;;;;;;;53.78;19.73;;;;;;;1.98;81.74;101243.03;1723120;83;21200;-59
2020/12/21 08:55:01;;;;;;;43.90;19.45;;;;;;;1.89;81.93;101240.91;1681370;84;21318;-56
2020/12/21 08:57:30;;;;;;;39.88;19.48;;;;;;;1.81;82.18;101242.30;1652364;86;21624;-58
2020/12/21 08:59:57;;;;;;;38.45;18.90;;;;;;;1.86;82.02;101242.61;1672657;85;21186;-58
2020/12/21 09:02:25;;;;;;;37.40;17.37;;;;;;;1.90;81.72;101232.34;1654533;86;21334;-56
2020/12/21 09:04:52;;;;;;;39.15;18.40;;;;;;;1.87;81.95;101231.36;1630411;85;21209;-58
2020/12/21 09:07:22;;;;;;;32.63;17.23;;;;;;;1.81;82.13;101226.69;1677395;85;21347;-57
2020/12/21 09:09:49;;;;;;;33.20;17.35;;;;;;;1.73;82.13;101222.23;1632973;84;21157;-57
2020/12/21 09:12:17;;;;;;;38.73;18.87;;;;;;;1.77;81.88;101226.20;1667259;86;21153;-58
2020/12/21 09:14:44;;;;;;;37.28;18.57;;;;;;;1.80;81.75;101227.72;1675151;84;21177;-58
2020/12/21 09:17:11;;;;;;;42.05;20.32;;;;;;;1.74;82.10;101219.02;1667315;86;21200;-57
2020/12/21 09:19:39;;;;;;;37.35;18.00;;;;;;;1.72;82.39;101221.89;1670680;84;21173;-58
2020/12/21 09:22:06;;;;;;;35.98;18.23;;;;;;;1.79;82.21;101226.04;1636062;87;21340;-57
2020/12/21 09:24:33;;;;;;;41.10;19.15;;;;;;;1.90;81.87;101213.55;1623013;86;21304;-58
2020/12/21 09:27:00;;;;;;;45.40;20.52;;;;;;;1.84;82.02;101208.90;1709816;84;21565;-57
2020/12/21 09:29:29;;;;;;;43.80;19.90;;;;;;;1.74;82.20;101221.20;1712640;83;21110;-57
2020/12/21 09:31:57;;;;;;;39.58;19.92;;;;;;;1.69;82.47;101213.37;1701324;84;21176;-59
2020/12/21 09:34:24;;;;;;;39.00;19.07;;;;;;;1.78;82.31;101206.41;1655257;86;21168;-58
2020/12/21 09:36:51;;;;;;;37.95;18.32;;;;;;;1.78;82.22;101206.41;1693137;82;21199;-57
2020/12/21 09:39:19;;;;;;;39.48;19.57;;;;;;;1.69;82.52;101212.02;1694931;84;21157;-56
2020/12/21 09:41:47;;;;;;;42.13;19.15;;;;;;;1.66;82.68;101208.36;1692132;84;21749;-60
2020/12/21 09:44:15;;;;;;;45.80;23.30;;;;;;;1.81;82.43;101202.52;1693168;83;21291;-57
2020/12/21 09:46:43;;;;;;;51.55;24.65;;;;;;;1.84;82.42;101203.53;1694763;83;21807;-58
2020/12/21 09:49:10;;;;;;;44.73;24.47;;;;;;;1.79;82.70;101202.72;1698266;84;22015;-57
2020/12/21 09:51:37;;;;;;;46.37;25.52;;;;;;;1.75;82.85;101203.24;1696525;82;21170;-57
2020/12/21 09:54:06;;;;;;;35.05;19.92;;;;;;;1.78;82.57;101197.02;1642645;84;21160;-58
2020/12/21 09:56:33;;;;;;;20.77;11.75;;;;;;;1.84;82.41;101196.81;1706385;84;21231;-58
2020/12/21 09:59:00;;;;;;;21.50;12.13;;;;;;;1.74;82.47;101198.38;1705316;84;21154;-59
2020/12/21 10:01:29;;;;;;;13.22;7.97;;;;;;;1.65;82.73;101198.12;1711668;82;21150;-58
2020/12/21 10:03:58;;;;;;;13.60;8.78;;;;;;;1.65;82.57;101201.31;1689904;83;21150;-59
2020/12/21 10:06:26;;;;;;;14.65;9.75;;;;;;;1.67;82.35;101195.23;1635682;87;21221;-59
2020/12/21 10:08:53;;;;;;;32.05;17.92;;;;;;;1.60;82.62;101195.63;1700387;84;21153;-58
2020/12/21 10:11:20;;;;;;;20.95;13.98;;;;;;;1.50;83.01;101191.84;1706377;83;21308;-59
2020/12/21 10:13:48;;;;;;;22.73;15.70;;;;;;;1.50;83.20;101198.55;1705189;82;21617;-59
2020/12/21 10:16:15;;;;;;;29.12;18.62;;;;;;;1.59;83.03;101191.30;1704173;84;21222;-58
2020/12/21 10:18:43;;;;;;;35.30;20.12;;;;;;;1.50;83.36;101191.84;1701044;84;21162;-58
2020/12/21 10:21:11;;;;;;;48.78;25.50;;;;;;;1.42;83.86;101187.86;1672990;84;21188;-57
2020/12/21 10:23:38;;;;;;;31.65;19.80;;;;;;;1.48;83.77;101182.64;1657667;84;21155;-58
2020/12/21 10:26:05;;;;;;;22.98;15.10;;;;;;;1.60;83.62;101177.67;1671084;84;21164;-55
2020/12/21 10:28:33;;;;;;;25.12;16.05;;;;;;;1.61;83.84;101177.17;1696064;84;21135;-59
2020/12/21 10:31:01;;;;;;;22.45;14.83;;;;;;;1.56;83.96;101184.95;1702700;84;21533;-59
2020/12/21 10:33:29;;;;;;;35.00;21.33;;;;;;;1.62;83.92;101176.17;1662841;85;21173;-59
2020/12/21 10:35:57;;;;;;;23.40;15.60;;;;;;;1.71;83.66;101176.42;1670695;86;21199;-58
2020/12/21 10:38:24;;;;;;;20.45;14.00;;;;;;;1.66;83.74;101176.14;1666239;84;21664;-60
2020/12/21 10:40:51;;;;;;;24.15;15.03;;;;;;;1.59;83.95;101191.30;1648027;86;21217;-60
2020/12/21 10:43:18;;;;;;;17.02;11.30;;;;;;;1.61;83.91;101183.88;1672350;86;21335;-58
2020/12/21 10:45:45;;;;;;;17.80;12.28;;;;;;;1.75;83.59;101183.95;1669219;84;21192;-59
2020/12/21 10:48:13;;;;;;;22.35;13.03;;;;;;;1.77;83.75;101185.13;1645911;87;21374;-59
2020/12/21 10:50:40;;;;;;;38.28;23.65;;;;;;;1.73;83.96;101177.09;1647452;86;21213;-59
2020/12/21 10:53:08;;;;;;;30.80;20.85;;;;;;;1.82;83.67;101176.84;1673112;85;21217;-60
2020/12/21 10:55:35;;;;;;;20.30;14.50;;;;;;;1.91;83.31;101174.41;1649326;86;21672;-60
2020/12/21 10:58:02;;;;;;;21.42;15.40;;;;;;;1.85;83.28;101174.30;1632551;85;21599;-60
2020/12/21 11:00:29;;;;;;;16.75;10.53;;;;;;;1.76;83.42;101170.86;1667366;84;21175;-59
2020/12/21 11:02:57;;;;;;;13.08;8.48;;;;;;;1.76;83.31;101174.05;1659880;85;21316;-59
2020/12/21 11:05:24;;;;;;;10.32;7.45;;;;;;;1.78;83.13;101170.16;1655622;84;21353;-58
2020/12/21 11:07:51;;;;;;;12.30;7.62;;;;;;;1.66;83.40;101172.12;1656110;86;21225;-60
2020/12/21 11:10:21;;;;;;;11.33;6.78;;;;;;;1.56;83.81;101170.99;1616853;86;21327;-59
2020/12/21 11:12:49;;;;;;;11.68;7.05;;;;;;;1.56;83.84;101162.94;1663234;86;21351;-59
2020/12/21 11:15:16;;;;;;;12.58;7.95;;;;;;;1.66;83.54;101161.38;1667836;86;21201;-60
2020/12/21 11:17:43;;;;;;;12.78;8.08;;;;;;;1.56;83.87;101164.81;1670406;85;21229;-59
2020/12/21 11:20:11;;;;;;;11.68;7.25;;;;;;;1.47;84.27;101174.26;1669778;86;21381;-59
2020/12/21 11:22:38;;;;;;;10.98;7.50;;;;;;;1.53;84.25;101170.52;1663120;85;22736;-59
2020/12/21 11:25:05;;;;;;;10.10;6.55;;;;;;;1.59;83.99;101168.48;1655903;86;21178;-57
2020/12/21 11:27:41;;;;;;;12.75;8.43;;;;;;;1.56;84.21;101163.47;1770753;79;23119;-56